UNEE 122030Z 16005MPS CAVOK M03/M10 Q1016 R23/CLRD60 NOSIG RMK QFE739
QNH:(hPa/inHg/mmHg)1016 / 30 / 762
QFE:(hPa/inHg/mmHg)984 / 29.05 / 738
Temperature-3
Dew Point-10
Visibility> 10000
WeatherCAVOK
Cloud Cover
Transition Height500 m./2600 ft.
Transition LevelFL40
SQUAWK